Terminal Aerodrome Forecast
Issued by NWS Wakefield, VA

Home | Current Version | Previous Version | Text Only | Print | Product List | Glossary On
Versions: 1 2 3 4 5 6 7 8 9 10 11 12 13
031
FTUS41 KAKQ 201120
TAFECG
TAF
KECG 201120Z 2012/2112 32007KT P6SM SCT250
     FM201500 02010KT P6SM SCT250
     FM202300 05005KT P6SM BKN250=

USA.gov is the U.S. government's official web portal to all federal, state and local government web resources and services.